Time;durP1;ratioP1;P1;durP2;ratioP2;P2;SDS_P1;SDS_P2;PMS_P1;PMS_P2;Temp;Humidity;BMP_temperature;BMP_pressure;BME280_temperature;BME280_humidity;BME280_pressure;Samples;Min_cycle;Max_cycle;Signal;HPM_P1;HPM_P2
2023/04/05 00:00:36;;;;;;;;;;;3.70;99.90;;;;;;5110915;28;19923;-74
2023/04/05 00:03:02;;;;;;;;;;;3.70;99.90;;;;;;5110914;28;19970;-74
2023/04/05 00:05:33;;;;;;;;;;;3.60;99.90;;;;;;5092722;28;20006;-74
2023/04/05 00:08:02;;;;;;;;;;;3.60;99.90;;;;;;5110873;28;19946;-74
2023/04/05 00:10:28;;;;;;;;;;;3.60;99.90;;;;;;5110509;28;19920;-74
2023/04/05 00:12:54;;;;;;;;;;;3.60;99.90;;;;;;5110742;28;19920;-74
2023/04/05 00:15:20;;;;;;;;;;;3.60;99.90;;;;;;5110555;28;19920;-74
2023/04/05 00:17:46;;;;;;;;;;;3.60;99.90;;;;;;5126225;27;19988;-74
2023/04/05 00:20:11;;;;;;;;;;;3.60;99.90;;;;;;5092760;28;20397;-74
2023/04/05 00:22:37;;;;;;;;;;;3.60;99.90;;;;;;5109578;28;20061;-74
2023/04/05 00:25:03;;;;;;;;;;;3.60;99.90;;;;;;5126223;27;20027;-74
2023/04/05 00:27:29;;;;;;;;;;;3.60;99.90;;;;;;5092277;28;19919;-74
2023/04/05 00:29:55;;;;;;;;;;;3.50;99.90;;;;;;5091911;28;19924;-74
2023/04/05 00:32:20;;;;;;;;;;;3.50;99.90;;;;;;5110613;28;19920;-74
2023/04/05 00:34:46;;;;;;;;;;;3.50;99.90;;;;;;5110509;28;19919;-74
2023/04/05 00:37:11;;;;;;;;;;;3.40;99.90;;;;;;5091679;28;19926;-74
2023/04/05 00:39:37;;;;;;;;;;;3.40;99.90;;;;;;5089725;28;19962;-74
2023/04/05 00:42:03;;;;;;;;;;;3.30;99.90;;;;;;5125179;27;20411;-74
2023/04/05 00:44:33;;;;;;;;;;;3.30;99.90;;;;;;5073873;28;20022;-74
2023/04/05 00:47:08;;;;;;;;;;;3.30;99.90;;;;;;5090544;28;19923;-74
2023/04/05 00:49:34;;;;;;;;;;;3.30;99.90;;;;;;5108704;28;19927;-74
2023/04/05 00:52:00;;;;;;;;;;;3.20;99.90;;;;;;5101435;28;20308;-74
2023/04/05 00:54:29;;;;;;;;;;;3.10;99.90;;;;;;5090373;28;19920;-74
2023/04/05 00:57:05;;;;;;;;;;;3.10;99.90;;;;;;5108677;28;20725;-74
2023/04/05 00:59:31;;;;;;;;;;;3.10;99.90;;;;;;5108814;28;19950;-74
2023/04/05 01:02:16;;;;;;;;;;;3.10;99.90;;;;;;5109181;28;19920;-74
2023/04/05 01:04:48;;;;;;;;;;;3.10;99.90;;;;;;5108770;28;19919;-74
2023/04/05 01:07:23;;;;;;;;;;;3.00;99.90;;;;;;5108602;28;19923;-75
2023/04/05 01:09:54;;;;;;;;;;;3.00;99.90;;;;;;5108425;28;20365;-74
2023/04/05 01:12:21;;;;;;;;;;;2.90;99.90;;;;;;5109176;28;20407;-74
2023/04/05 01:14:51;;;;;;;;;;;2.90;99.90;;;;;;5108360;28;20424;-74
2023/04/05 01:17:26;;;;;;;;;;;2.90;99.90;;;;;;5108941;28;19920;-74
2023/04/05 01:19:57;;;;;;;;;;;2.80;99.90;;;;;;5109197;28;19927;-74
2023/04/05 01:22:30;;;;;;;;;;;2.80;99.90;;;;;;5108433;28;19930;-74
2023/04/05 01:25:05;;;;;;;;;;;2.80;99.90;;;;;;5108702;28;19927;-74
2023/04/05 01:27:53;;;;;;;;;;;2.80;99.90;;;;;;5108608;28;19949;-74
2023/04/05 01:30:33;;;;;;;;;;;2.70;99.90;;;;;;5108026;28;19920;-74
2023/04/05 01:33:23;;;;;;;;;;;2.60;99.90;;;;;;5089919;28;19927;-75
2023/04/05 01:36:00;;;;;;;;;;;2.60;99.90;;;;;;5108380;28;19924;-74
2023/04/05 01:38:26;;;;;;;;;;;2.60;99.90;;;;;;5108343;28;20269;-74
2023/04/05 01:40:52;;;;;;;;;;;2.60;99.90;;;;;;5108800;28;20480;-74
2023/04/05 01:43:18;;;;;;;;;;;2.60;99.90;;;;;;5108254;28;19920;-74
2023/04/05 01:45:44;;;;;;;;;;;2.50;99.90;;;;;;5123306;28;20343;-75
2023/04/05 01:48:09;;;;;;;;;;;2.60;99.90;;;;;;5108359;28;20339;-74
2023/04/05 01:50:35;;;;;;;;;;;2.60;99.90;;;;;;5111112;28;19919;-74
2023/04/05 01:53:00;;;;;;;;;;;2.60;99.90;;;;;;5093688;28;19919;-74
2023/04/05 01:55:26;;;;;;;;;;;2.50;99.90;;;;;;5112641;28;19923;-74
2023/04/05 01:57:54;;;;;;;;;;;2.60;99.90;;;;;;5111822;28;20317;-74
2023/04/05 02:00:20;;;;;;;;;;;2.60;99.90;;;;;;5108875;28;19927;-74
2023/04/05 02:02:46;;;;;;;;;;;2.60;99.90;;;;;;5112148;28;19920;-75
2023/04/05 02:05:11;;;;;;;;;;;2.60;99.90;;;;;;5094012;28;19920;-74
2023/04/05 02:07:37;;;;;;;;;;;2.60;99.90;;;;;;5094156;28;19930;-74
2023/04/05 02:10:03;;;;;;;;;;;2.60;99.90;;;;;;5111783;28;19926;-74
2023/04/05 02:12:29;;;;;;;;;;;2.60;99.90;;;;;;5112237;28;19919;-74
2023/04/05 02:14:54;;;;;;;;;;;2.60;99.90;;;;;;5112144;28;19924;-74
2023/04/05 02:17:20;;;;;;;;;;;2.60;99.90;;;;;;5112010;28;19988;-74
2023/04/05 02:19:46;;;;;;;;;;;2.60;99.90;;;;;;5127917;27;19967;-74
2023/04/05 02:22:12;;;;;;;;;;;2.60;99.90;;;;;;5111934;28;20363;-74
2023/04/05 02:24:38;;;;;;;;;;;2.50;99.90;;;;;;5111564;28;20415;-74
2023/04/05 02:27:03;;;;;;;;;;;2.50;99.90;;;;;;5112004;28;19919;-74
2023/04/05 02:29:30;;;;;;;;;;;2.50;99.90;;;;;;5111638;28;19920;-74
2023/04/05 02:31:56;;;;;;;;;;;2.50;99.90;;;;;;5111693;28;19920;-74
2023/04/05 02:34:21;;;;;;;;;;;2.50;99.90;;;;;;5093836;28;19920;-74
2023/04/05 02:36:50;;;;;;;;;;;2.50;99.90;;;;;;5111603;28;19927;-74
2023/04/05 02:39:16;;;;;;;;;;;2.50;99.90;;;;;;5104527;28;20408;-74
2023/04/05 02:41:41;;;;;;;;;;;2.50;99.90;;;;;;5111265;28;19923;-74
2023/04/05 02:44:07;;;;;;;;;;;2.50;99.90;;;;;;5093056;28;19927;-75
2023/04/05 02:46:32;;;;;;;;;;;2.50;99.90;;;;;;5111167;28;19923;-74
2023/04/05 02:48:58;;;;;;;;;;;2.50;99.90;;;;;;5111833;28;19927;-74
2023/04/05 02:51:23;;;;;;;;;;;2.40;99.90;;;;;;5111326;28;19923;-74
2023/04/05 02:53:49;;;;;;;;;;;2.40;99.90;;;;;;5093664;28;19927;-74
2023/04/05 02:56:14;;;;;;;;;;;2.40;99.90;;;;;;5111231;28;20388;-74
2023/04/05 02:58:40;;;;;;;;;;;2.30;99.90;;;;;;5110809;28;19924;-74
2023/04/05 03:01:05;;;;;;;;;;;2.30;99.90;;;;;;5110209;28;19927;-75
2023/04/05 03:03:33;;;;;;;;;;;2.30;99.90;;;;;;5111139;28;19925;-74
2023/04/05 03:06:00;;;;;;;;;;;2.30;99.90;;;;;;5111081;28;19923;-74
2023/04/05 03:08:27;;;;;;;;;;;2.30;99.90;;;;;;5111771;28;19980;-74
2023/04/05 03:10:53;;;;;;;;;;;2.20;99.90;;;;;;5111145;28;19980;-74
2023/04/05 03:13:19;;;;;;;;;;;2.30;99.90;;;;;;5127103;27;19919;-74
2023/04/05 03:15:44;;;;;;;;;;;2.20;99.90;;;;;;5094949;28;19920;-74
2023/04/05 03:18:10;;;;;;;;;;;2.20;99.90;;;;;;5111430;28;20366;-74
2023/04/05 03:20:42;;;;;;;;;;;2.20;99.90;;;;;;5093073;28;19920;-74
2023/04/05 03:23:07;;;;;;;;;;;2.20;99.90;;;;;;5127602;27;19926;-74
2023/04/05 03:25:34;;;;;;;;;;;2.20;99.90;;;;;;5110637;28;19927;-74
2023/04/05 03:28:02;;;;;;;;;;;2.10;99.90;;;;;;5092740;28;19919;-74
2023/04/05 03:30:28;;;;;;;;;;;2.10;99.90;;;;;;5126563;27;19973;-74
2023/04/05 03:32:53;;;;;;;;;;;2.10;99.90;;;;;;5092423;28;19963;-74
2023/04/05 03:35:19;;;;;;;;;;;2.10;99.90;;;;;;5110621;28;19928;-74
2023/04/05 03:37:45;;;;;;;;;;;2.00;99.90;;;;;;5110571;28;19972;-74
2023/04/05 03:40:11;;;;;;;;;;;2.00;99.90;;;;;;5106152;28;19978;-74
2023/04/05 03:42:37;;;;;;;;;;;2.00;99.90;;;;;;5110109;28;19924;-74
2023/04/05 03:45:04;;;;;;;;;;;1.90;99.90;;;;;;5110429;28;20018;-74
2023/04/05 03:47:30;;;;;;;;;;;1.90;99.90;;;;;;5110400;28;19923;-74
2023/04/05 03:49:56;;;;;;;;;;;2.00;99.90;;;;;;5110871;28;19920;-74
2023/04/05 03:52:21;;;;;;;;;;;1.90;99.90;;;;;;5091967;28;19919;-74
2023/04/05 03:54:47;;;;;;;;;;;1.90;99.90;;;;;;5110013;28;21077;-73
2023/04/05 03:57:12;;;;;;;;;;;1.90;99.90;;;;;;5091729;28;19926;-74
2023/04/05 03:59:37;;;;;;;;;;;1.90;99.90;;;;;;5109993;28;19925;-74
2023/04/05 04:02:03;;;;;;;;;;;1.90;99.90;;;;;;5110362;28;19920;-74
2023/04/05 04:04:28;;;;;;;;;;;1.80;99.90;;;;;;5109955;28;19919;-74
2023/04/05 04:06:55;;;;;;;;;;;1.80;99.90;;;;;;5110360;28;19919;-74
2023/04/05 04:09:21;;;;;;;;;;;1.80;99.90;;;;;;5091447;28;19919;-74
2023/04/05 04:11:47;;;;;;;;;;;1.80;99.90;;;;;;5110195;28;20553;-74
2023/04/05 04:14:12;;;;;;;;;;;1.80;99.90;;;;;;5109445;28;19963;-74
2023/04/05 04:16:38;;;;;;;;;;;1.80;99.90;;;;;;5109262;28;19966;-74
2023/04/05 04:19:03;;;;;;;;;;;1.70;99.90;;;;;;5109787;28;19920;-74
2023/04/05 04:21:31;;;;;;;;;;;1.70;99.90;;;;;;5109658;28;19970;-74
2023/04/05 04:23:56;;;;;;;;;;;1.70;99.90;;;;;;5090796;28;19958;-74
2023/04/05 04:26:27;;;;;;;;;;;1.70;99.90;;;;;;5109604;28;19962;-74
2023/04/05 04:28:54;;;;;;;;;;;1.60;99.90;;;;;;5109223;28;20010;-74
2023/04/05 04:31:22;;;;;;;;;;;1.60;99.90;;;;;;5109814;28;20357;-74
2023/04/05 04:33:50;;;;;;;;;;;1.60;99.90;;;;;;5109516;28;19920;-74
2023/04/05 04:36:16;;;;;;;;;;;1.60;99.90;;;;;;5091106;28;19963;-74
2023/04/05 04:38:43;;;;;;;;;;;1.60;99.90;;;;;;5125680;27;20010;-74
2023/04/05 04:41:12;;;;;;;;;;;1.60;99.90;;;;;;5109233;28;19931;-74
2023/04/05 04:43:42;;;;;;;;;;;1.60;99.90;;;;;;5091047;28;19930;-74
2023/04/05 04:46:13;;;;;;;;;;;1.60;99.90;;;;;;5109156;28;19924;-74
2023/04/05 04:48:40;;;;;;;;;;;1.50;99.90;;;;;;5109339;28;19927;-74
2023/04/05 04:51:06;;;;;;;;;;;1.50;99.90;;;;;;5109303;28;20537;-74
2023/04/05 04:53:32;;;;;;;;;;;1.40;99.90;;;;;;5091208;28;19980;-74
2023/04/05 04:55:57;;;;;;;;;;;1.40;99.90;;;;;;5109678;28;19920;-74
2023/04/05 04:58:23;;;;;;;;;;;1.40;99.90;;;;;;5074580;28;19980;-74
2023/04/05 05:00:51;;;;;;;;;;;1.40;99.90;;;;;;5091814;28;19969;-74
2023/04/05 05:03:17;;;;;;;;;;;1.40;99.90;;;;;;5109562;28;19948;-74
2023/04/05 05:05:44;;;;;;;;;;;1.40;99.90;;;;;;5125645;27;19925;-74
2023/04/05 05:08:09;;;;;;;;;;;1.40;99.90;;;;;;5109988;28;20266;-74
2023/04/05 05:10:35;;;;;;;;;;;1.40;99.90;;;;;;5109789;28;19972;-75
2023/04/05 05:13:01;;;;;;;;;;;1.40;99.90;;;;;;5091422;28;19927;-74
2023/04/05 05:15:26;;;;;;;;;;;1.40;99.90;;;;;;5110166;28;19958;-74
2023/04/05 05:17:53;;;;;;;;;;;1.40;99.90;;;;;;5110026;28;19990;-74
2023/04/05 05:20:19;;;;;;;;;;;1.40;99.90;;;;;;5091700;28;20355;-74
2023/04/05 05:22:45;;;;;;;;;;;1.40;99.90;;;;;;5109653;28;20010;-74
2023/04/05 05:25:11;;;;;;;;;;;1.40;99.90;;;;;;5108872;28;20366;-74
2023/04/05 05:27:37;;;;;;;;;;;1.40;99.90;;;;;;5109594;28;19968;-74
2023/04/05 05:30:03;;;;;;;;;;;1.40;99.90;;;;;;5091332;28;20384;-74
2023/04/05 05:32:29;;;;;;;;;;;1.50;99.90;;;;;;5091474;28;19923;-74
2023/04/05 05:34:54;;;;;;;;;;;1.50;99.90;;;;;;5109605;28;20352;-74
2023/04/05 05:37:30;;;;;;;;;;;1.50;99.90;;;;;;5109499;28;20404;-72
2023/04/05 05:39:56;;;;;;;;;;;1.50;99.90;;;;;;5108837;28;19923;-73
2023/04/05 05:42:21;;;;;;;;;;;1.60;99.90;;;;;;5088975;28;20404;-73
2023/04/05 05:44:47;;;;;;;;;;;1.70;99.90;;;;;;5094394;28;19919;-73
2023/04/05 05:47:12;;;;;;;;;;;1.70;99.90;;;;;;5108978;28;19920;-73
2023/04/05 05:49:38;;;;;;;;;;;1.80;99.90;;;;;;5095832;28;19985;-73
2023/04/05 05:52:04;;;;;;;;;;;1.80;99.90;;;;;;5109487;28;19979;-74
2023/04/05 05:54:29;;;;;;;;;;;1.90;99.90;;;;;;5091491;28;19954;-74
2023/04/05 05:56:55;;;;;;;;;;;1.90;99.90;;;;;;5108497;28;19926;-74
2023/04/05 05:59:21;;;;;;;;;;;2.00;99.90;;;;;;5108538;28;19920;-74
2023/04/05 06:01:47;;;;;;;;;;;2.00;99.90;;;;;;5108953;28;19926;-75
2023/04/05 06:04:12;;;;;;;;;;;2.10;99.90;;;;;;5109576;28;19924;-74
2023/04/05 06:06:39;;;;;;;;;;;2.20;99.90;;;;;;5109806;28;19978;-74
2023/04/05 06:09:05;;;;;;;;;;;2.20;99.90;;;;;;5109065;28;20264;-75
2023/04/05 06:11:30;;;;;;;;;;;2.30;99.90;;;;;;5091405;28;19920;-75
2023/04/05 06:13:56;;;;;;;;;;;2.40;99.90;;;;;;5091345;28;19973;-75
2023/04/05 06:16:21;;;;;;;;;;;2.40;99.90;;;;;;5109355;28;20018;-74
2023/04/05 06:18:47;;;;;;;;;;;2.50;99.90;;;;;;5109544;28;20308;-75
2023/04/05 06:21:13;;;;;;;;;;;2.50;99.90;;;;;;5091119;28;19932;-75
2023/04/05 06:23:41;;;;;;;;;;;2.60;99.90;;;;;;5109448;28;19964;-75
2023/04/05 06:26:07;;;;;;;;;;;2.60;99.90;;;;;;5109409;28;19920;-75
2023/04/05 06:28:33;;;;;;;;;;;2.70;99.90;;;;;;5108941;28;20440;-75
2023/04/05 06:30:58;;;;;;;;;;;2.80;99.90;;;;;;5091519;28;19920;-75
2023/04/05 06:33:24;;;;;;;;;;;2.80;99.90;;;;;;5109303;28;19920;-75
2023/04/05 06:35:50;;;;;;;;;;;2.90;99.90;;;;;;5109137;28;19963;-75
2023/04/05 06:38:15;;;;;;;;;;;3.00;99.90;;;;;;5094215;28;19919;-75
2023/04/05 06:40:41;;;;;;;;;;;3.00;99.90;;;;;;5112846;28;20321;-75
2023/04/05 06:43:07;;;;;;;;;;;3.10;99.90;;;;;;5112457;28;20293;-75
2023/04/05 06:45:32;;;;;;;;;;;3.10;99.90;;;;;;5076497;28;19968;-75
2023/04/05 06:47:58;;;;;;;;;;;3.20;99.90;;;;;;5094457;28;19968;-75
2023/04/05 06:50:23;;;;;;;;;;;3.30;99.90;;;;;;5094289;28;19923;-75
2023/04/05 06:52:49;;;;;;;;;;;3.30;99.90;;;;;;5094380;28;20418;-75
2023/04/05 06:55:15;;;;;;;;;;;3.40;99.90;;;;;;5094535;28;19924;-75
2023/04/05 06:57:40;;;;;;;;;;;3.40;99.90;;;;;;5093540;28;20485;-75
2023/04/05 07:00:12;;;;;;;;;;;3.50;99.90;;;;;;5093991;28;20300;-75
2023/04/05 07:02:38;;;;;;;;;;;3.50;99.90;;;;;;5128163;27;19924;-75
2023/04/05 07:05:04;;;;;;;;;;;3.60;99.90;;;;;;5112490;28;20282;-75
2023/04/05 07:07:31;;;;;;;;;;;3.70;99.90;;;;;;5111934;28;19919;-76
2023/04/05 07:09:56;;;;;;;;;;;3.70;99.90;;;;;;5128454;27;20297;-75
2023/04/05 07:12:22;;;;;;;;;;;3.80;99.90;;;;;;5112474;28;19927;-75
2023/04/05 07:14:47;;;;;;;;;;;3.80;99.90;;;;;;5112647;28;20031;-75
2023/04/05 07:17:13;;;;;;;;;;;3.80;99.90;;;;;;5111754;28;20034;-75
2023/04/05 07:19:38;;;;;;;;;;;3.90;99.90;;;;;;5111961;28;20286;-75
2023/04/05 07:22:04;;;;;;;;;;;4.00;99.90;;;;;;5112269;28;19920;-75
2023/04/05 07:24:30;;;;;;;;;;;4.00;99.90;;;;;;5093864;28;19920;-75
2023/04/05 07:26:56;;;;;;;;;;;4.10;99.90;;;;;;5112117;28;19943;-75
2023/04/05 07:29:21;;;;;;;;;;;4.10;99.90;;;;;;5111539;28;20394;-75
2023/04/05 07:31:47;;;;;;;;;;;4.20;99.90;;;;;;5076467;28;19973;-75
2023/04/05 07:34:12;;;;;;;;;;;4.30;99.90;;;;;;5093651;28;19972;-75
2023/04/05 07:36:38;;;;;;;;;;;4.30;99.90;;;;;;5111905;28;19920;-75
2023/04/05 07:39:04;;;;;;;;;;;4.40;99.90;;;;;;5111999;28;20305;-75
2023/04/05 07:41:34;;;;;;;;;;;4.40;99.90;;;;;;5111150;28;19919;-75
2023/04/05 07:44:00;;;;;;;;;;;4.50;99.90;;;;;;5112024;28;20479;-75
2023/04/05 07:46:26;;;;;;;;;;;4.60;99.90;;;;;;5093363;28;19920;-75
2023/04/05 07:48:52;;;;;;;;;;;4.60;99.90;;;;;;5111039;28;19920;-75
2023/04/05 07:51:17;;;;;;;;;;;4.60;99.90;;;;;;5111342;28;19927;-76
2023/04/05 07:53:43;;;;;;;;;;;4.70;99.90;;;;;;5093254;28;20495;-75
2023/04/05 07:56:13;;;;;;;;;;;4.70;99.90;;;;;;5092719;28;19926;-75
2023/04/05 07:58:40;;;;;;;;;;;4.80;99.90;;;;;;5072306;28;19927;-75
2023/04/05 08:01:06;;;;;;;;;;;4.80;99.90;;;;;;5123620;27;20382;-75
2023/04/05 08:03:33;;;;;;;;;;;5.00;99.90;;;;;;5091122;28;19924;-75
2023/04/05 08:06:08;;;;;;;;;;;5.00;99.90;;;;;;5091006;28;19970;-75
2023/04/05 08:08:34;;;;;;;;;;;5.10;99.90;;;;;;5089266;28;19920;-76
2023/04/05 08:11:01;;;;;;;;;;;5.10;99.90;;;;;;5091043;28;20297;-75
2023/04/05 08:13:27;;;;;;;;;;;5.20;99.90;;;;;;5090718;28;19956;-75
2023/04/05 08:15:54;;;;;;;;;;;5.20;99.90;;;;;;5090547;28;20370;-75
2023/04/05 08:18:20;;;;;;;;;;;5.30;99.90;;;;;;5090543;28;19920;-75
2023/04/05 08:20:49;;;;;;;;;;;5.40;99.90;;;;;;5089197;28;19975;-75
2023/04/05 08:23:15;;;;;;;;;;;5.50;99.90;;;;;;5090581;28;19920;-76
2023/04/05 08:25:40;;;;;;;;;;;5.60;99.90;;;;;;5089263;28;19920;-75
2023/04/05 08:28:06;;;;;;;;;;;5.60;99.90;;;;;;5090108;28;19920;-75
2023/04/05 08:30:32;;;;;;;;;;;5.70;99.90;;;;;;5090333;28;19920;-75
2023/04/05 08:32:57;;;;;;;;;;;5.70;99.90;;;;;;5090480;28;20006;-75
2023/04/05 08:35:23;;;;;;;;;;;5.80;99.90;;;;;;5089075;28;20301;-75
2023/04/05 08:37:48;;;;;;;;;;;5.90;99.90;;;;;;5090061;28;19928;-75
2023/04/05 08:40:14;;;;;;;;;;;5.90;99.90;;;;;;5089128;28;20347;-75
2023/04/05 08:42:56;;;;;;;;;;;6.00;99.90;;;;;;5089681;28;19920;-75
2023/04/05 08:45:24;;;;;;;;;;;6.00;99.90;;;;;;5090164;28;19920;-75
2023/04/05 08:47:51;;;;;;;;;;;6.10;99.90;;;;;;5123171;27;20011;-75
2023/04/05 08:50:17;;;;;;;;;;;6.20;99.90;;;;;;5088603;28;20012;-75
2023/04/05 08:52:47;;;;;;;;;;;6.30;99.90;;;;;;5088707;28;20003;-75
2023/04/05 08:55:12;;;;;;;;;;;6.40;99.90;;;;;;5071868;28;19920;-76
2023/04/05 08:57:41;;;;;;;;;;;6.50;99.90;;;;;;5090027;28;19919;-75
2023/04/05 09:00:07;;;;;;;;;;;6.60;99.90;;;;;;5105007;28;19920;-75
2023/04/05 09:02:33;;;;;;;;;;;6.70;99.90;;;;;;5091575;28;19952;-75
2023/04/05 09:04:59;;;;;;;;;;;6.80;99.90;;;;;;5110166;28;19939;-75
2023/04/05 09:07:26;;;;;;;;;;;6.90;99.90;;;;;;5110078;28;20316;-75
2023/04/05 09:09:52;;;;;;;;;;;7.00;99.90;;;;;;5110125;28;19930;-75
2023/04/05 09:12:23;;;;;;;;;;;7.20;99.90;;;;;;5109883;28;19920;-75
2023/04/05 09:14:49;;;;;;;;;;;7.30;99.90;;;;;;5083353;28;19928;-75
2023/04/05 09:17:16;;;;;;;;;;;7.40;99.90;;;;;;5109766;28;19920;-75
2023/04/05 09:19:43;;;;;;;;;;;7.50;99.90;;;;;;5092135;28;19920;-75
2023/04/05 09:22:09;;;;;;;;;;;7.60;99.90;;;;;;5091528;28;20002;-76
2023/04/05 09:24:42;;;;;;;;;;;8.10;99.90;;;;;;5074949;28;19919;-76
2023/04/05 09:27:08;;;;;;;;;;;8.90;99.90;;;;;;5090731;28;20400;-76
2023/04/05 09:29:34;;;;;;;;;;;9.70;99.90;;;;;;5091626;28;19924;-75
2023/04/05 09:32:02;;;;;;;;;;;10.50;97.50;;;;;;5091838;28;20455;-76
2023/04/05 09:34:28;;;;;;;;;;;11.10;96.00;;;;;;5090712;28;19924;-76
2023/04/05 09:36:54;;;;;;;;;;;11.50;92.20;;;;;;5109633;28;19927;-76
2023/04/05 09:39:26;;;;;;;;;;;11.90;90.00;;;;;;5091929;28;20300;-76
2023/04/05 09:42:03;;;;;;;;;;;12.30;87.40;;;;;;5106177;28;20466;-76
2023/04/05 09:44:46;;;;;;;;;;;12.70;80.70;;;;;;5125465;27;19924;-76
2023/04/05 09:47:16;;;;;;;;;;;12.80;78.20;;;;;;5109886;28;20380;-76
2023/04/05 09:49:41;;;;;;;;;;;13.10;79.10;;;;;;5109443;28;19920;-76
2023/04/05 09:52:24;;;;;;;;;;;13.30;75.10;;;;;;5110063;28;19965;-76
2023/04/05 09:54:50;;;;;;;;;;;13.50;78.10;;;;;;5105805;28;20015;-76
2023/04/05 09:57:17;;;;;;;;;;;13.70;71.80;;;;;;5109744;28;20396;-76
2023/04/05 09:59:43;;;;;;;;;;;13.90;73.90;;;;;;5090780;28;19930;-77
2023/04/05 10:02:09;;;;;;;;;;;14.10;72.70;;;;;;5109787;28;19927;-76
2023/04/05 10:04:40;;;;;;;;;;;14.10;68.80;;;;;;5109756;28;19959;-76
2023/04/05 10:07:06;;;;;;;;;;;14.40;70.20;;;;;;5091880;28;19941;-76
2023/04/05 10:09:31;;;;;;;;;;;14.70;71.50;;;;;;5109689;28;19919;-76
2023/04/05 10:11:57;;;;;;;;;;;15.00;69.50;;;;;;5112370;28;19919;-76
2023/04/05 10:14:22;;;;;;;3.88;1.60;;;15.40;70.50;;;;;;5128428;27;20393;-76
2023/04/05 10:16:57;;;;;;;4.77;2.10;;;15.60;68.40;;;;;;5093843;28;20746;-76
2023/04/05 10:19:52;;;;;;;5.15;2.45;;;15.80;68.40;;;;;;5113206;28;20447;-76
2023/04/05 10:22:28;;;;;;;;;;;15.80;65.70;;;;;;5112818;28;20055;-76
2023/04/05 10:24:59;;;;;;;;;;;15.90;64.00;;;;;;5113175;28;19981;-76
2023/04/05 10:27:38;;;;;;;3.45;1.85;;;16.10;63.40;;;;;;5112710;28;19949;-76
2023/04/05 10:30:05;;;;;;;5.68;2.58;;;16.20;61.40;;;;;;5111560;28;20487;-76
2023/04/05 10:32:48;;;;;;;;;;;16.40;64.90;;;;;;5103974;28;20055;-76
2023/04/05 10:35:39;;;;;;;4.60;2.50;;;16.60;64.00;;;;;;5111961;28;19923;-76
2023/04/05 10:38:23;;;;;;;5.90;2.65;;;16.50;57.50;;;;;;5112676;28;20119;-76
2023/04/05 10:41:00;;;;;;;4.05;2.40;;;16.20;58.90;;;;;;5112033;28;20519;-76
2023/04/05 10:43:26;;;;;;;4.57;2.58;;;16.40;60.80;;;;;;5108811;28;20043;-76
2023/04/05 10:45:53;;;;;;;;;;;16.50;59.40;;;;;;5077542;28;20050;-76
2023/04/05 10:48:56;;;;;;;7.00;3.15;;;16.60;56.90;;;;;;5112634;28;19919;-76
2023/04/05 10:51:25;;;;;;;6.85;3.22;;;16.60;57.20;;;;;;5095863;28;20180;-76
2023/04/05 10:53:51;;;;;;;9.15;2.80;;;16.60;58.90;;;;;;5112287;28;20043;-76
2023/04/05 10:56:18;;;;;;;5.15;2.50;;;16.70;58.50;;;;;;5106632;28;20375;-76
2023/04/05 10:58:45;;;;;;;5.95;2.95;;;16.80;55.00;;;;;;5111518;28;20489;-76
2023/04/05 11:01:12;;;;;;;6.80;2.83;;;16.70;56.10;;;;;;5112408;28;20048;-76
2023/04/05 11:03:47;;;;;;;4.00;2.42;;;16.80;54.10;;;;;;5094164;28;20052;-76
2023/04/05 11:06:24;;;;;;;4.93;2.83;;;16.80;55.30;;;;;;5109226;28;20539;-76
2023/04/05 11:08:54;;;;;;;4.00;2.75;;;16.80;55.70;;;;;;5112032;28;20059;-76
2023/04/05 11:11:22;;;;;;;5.90;3.42;;;17.00;55.20;;;;;;5093552;28;20039;-76
2023/04/05 11:13:55;;;;;;;5.53;2.90;;;16.90;54.60;;;;;;5111469;28;20087;-76
2023/04/05 11:16:22;;;;;;;7.80;3.08;;;16.90;55.80;;;;;;5107185;28;20529;-76
2023/04/05 11:18:51;;;;;;;6.45;2.95;;;17.10;52.00;;;;;;5127324;27;20051;-76
2023/04/05 11:21:24;;;;;;;5.80;2.92;;;17.00;51.20;;;;;;5111206;28;20104;-76
2023/04/05 11:24:06;;;;;;;4.27;3.03;;;17.00;55.30;;;;;;5106653;28;20065;-76
2023/04/05 11:26:47;;;;;;;4.47;2.83;;;17.10;55.40;;;;;;5111356;28;20035;-76
2023/04/05 11:29:14;;;;;;;6.47;3.20;;;17.30;54.10;;;;;;5110126;28;20412;-76
2023/04/05 11:32:05;;;;;;;5.40;2.92;;;17.40;54.50;;;;;;5109387;28;20453;-76
2023/04/05 11:34:35;;;;;;;5.68;2.85;;;17.60;53.40;;;;;;5105584;28;20048;-76
2023/04/05 11:37:00;;;;;;;5.32;2.60;;;17.50;50.90;;;;;;5111242;28;20074;-76
2023/04/05 11:39:27;;;;;;;3.75;2.60;;;17.30;51.10;;;;;;5111499;28;20079;-76
2023/04/05 11:41:54;;;;;;;6.35;2.90;;;17.30;52.50;;;;;;5092977;28;20090;-76
2023/04/05 11:44:21;;;;;;;4.40;2.80;;;17.30;52.70;;;;;;5110825;28;20053;-76
2023/04/05 11:46:47;;;;;;;8.93;2.92;;;17.30;53.10;;;;;;5110993;28;20074;-76
2023/04/05 11:49:13;;;;;;;4.32;2.92;;;17.40;51.10;;;;;;5111309;28;20079;-76
2023/04/05 11:51:42;;;;;;;5.30;2.33;;;17.40;52.00;;;;;;5126604;27;20081;-76
2023/04/05 11:54:11;;;;;;;4.78;2.67;;;17.50;49.80;;;;;;5092765;28;20501;-76
2023/04/05 11:56:37;;;;;;;4.15;2.83;;;17.50;49.40;;;;;;5110661;28;20050;-76
2023/04/05 11:59:02;;;;;;;;;;;17.50;51.10;;;;;;5091274;28;20044;-76
2023/04/05 12:01:28;;;;;;;6.45;3.10;;;17.70;51.10;;;;;;5109107;28;19924;-76
2023/04/05 12:03:54;;;;;;;;;;;18.00;52.60;;;;;;5111311;28;20043;-76
2023/04/05 12:06:24;;;;;;;;;;;18.10;48.80;;;;;;5092193;28;19926;-76
2023/04/05 12:08:50;;;;;;;4.10;2.70;;;18.00;48.90;;;;;;5110694;28;19946;-76
2023/04/05 12:11:28;;;;;;;5.88;3.05;;;17.90;49.60;;;;;;5109309;28;20406;-76
2023/04/05 12:13:59;;;;;;;4.90;2.80;;;17.80;50.70;;;;;;5110791;28;20070;-76
2023/04/05 12:16:25;;;;;;;5.18;3.08;;;17.80;50.40;;;;;;5091872;28;20839;-76
2023/04/05 12:18:57;;;;;;;5.35;3.15;;;18.00;48.70;;;;;;5109100;28;20059;-76
2023/04/05 12:21:23;;;;;;;;;;;18.00;48.90;;;;;;5109845;28;20191;-76
2023/04/05 12:23:49;;;;;;;;;;;18.00;49.60;;;;;;5109493;28;19927;-76
2023/04/05 12:26:15;;;;;;;;;;;18.10;48.50;;;;;;5109723;28;19919;-76
2023/04/05 12:28:50;;;;;;;4.43;2.65;;;18.10;49.50;;;;;;5109186;28;19920;-76
2023/04/05 12:31:16;;;;;;;4.75;3.08;;;18.10;49.80;;;;;;5091216;28;20055;-76
2023/04/05 12:33:43;;;;;;;4.85;2.58;;;18.20;48.70;;;;;;5109353;28;20043;-76
2023/04/05 12:36:09;;;;;;;5.32;3.20;;;18.10;48.10;;;;;;5108899;28;20396;-75
2023/04/05 12:38:36;;;;;;;5.97;3.40;;;18.20;49.80;;;;;;5109688;28;20043;-76
2023/04/05 12:41:03;;;;;;;5.38;3.30;;;18.30;48.30;;;;;;5110207;28;20409;-76
2023/04/05 12:43:41;;;;;;;;;;;18.30;46.80;;;;;;5126502;27;20047;-76
2023/04/05 12:46:19;;;;;;;5.63;3.03;;;18.40;47.90;;;;;;5091371;28;19939;-75
2023/04/05 12:48:50;;;;;;;4.65;3.35;;;18.40;48.80;;;;;;5124641;27;20541;-76
2023/04/05 12:51:16;;;;;;;6.75;3.13;;;18.60;47.70;;;;;;5124065;27;20400;-76
2023/04/05 12:53:48;;;;;;;4.57;2.72;;;18.50;47.50;;;;;;5125901;27;20044;-76
2023/04/05 12:56:15;;;;;;;5.18;3.20;;;18.60;47.20;;;;;;5091545;28;20443;-75
2023/04/05 12:58:41;;;;;;;4.60;2.90;;;18.60;47.70;;;;;;5109734;28;20064;-76
2023/04/05 13:01:06;;;;;;;4.68;2.67;;;18.70;47.90;;;;;;5124760;27;20490;-75
2023/04/05 13:03:33;;;;;;;3.72;2.60;;;18.80;45.90;;;;;;5092066;28;20067;-76
2023/04/05 13:05:59;;;;;;;4.70;2.63;;;19.00;48.00;;;;;;5091613;28;20137;-76
2023/04/05 13:08:26;;;;;;;;;;;19.20;45.30;;;;;;5091879;28;20490;-76
2023/04/05 13:10:52;;;;;;;4.45;3.00;;;19.30;47.00;;;;;;5090954;28;19919;-76
2023/04/05 13:13:21;;;;;;;5.53;3.03;;;19.30;45.30;;;;;;5125850;27;20130;-76
2023/04/05 13:15:47;;;;;;;5.03;2.83;;;19.20;45.40;;;;;;5089478;28;20443;-75
2023/04/05 13:18:13;;;;;;;10.60;3.70;;;19.30;45.50;;;;;;5108119;28;20435;-76
2023/04/05 13:20:42;;;;;;;4.88;2.72;;;19.50;46.70;;;;;;5090742;28;20083;-75
2023/04/05 13:23:10;;;;;;;4.63;2.53;;;19.50;44.50;;;;;;5091303;28;20039;-75
2023/04/05 13:25:41;;;;;;;4.25;2.65;;;19.60;45.00;;;;;;5105284;28;20142;-75
2023/04/05 13:28:07;;;;;;;4.90;3.03;;;19.60;45.30;;;;;;5128313;27;20416;-75
2023/04/05 13:30:33;;;;;;;4.30;3.00;;;19.60;44.80;;;;;;5107695;28;20424;-75
2023/04/05 13:32:59;;;;;;;4.28;2.70;;;19.90;46.20;;;;;;5089985;28;20411;-75
2023/04/05 13:35:24;;;;;;;;;;;20.30;45.20;;;;;;5091130;28;20039;-75
2023/04/05 13:37:50;;;;;;;;;;;20.40;44.80;;;;;;5091433;28;19919;-75
2023/04/05 13:40:16;;;;;;;;;;;20.40;43.30;;;;;;5090644;28;20290;-75
2023/04/05 13:42:41;;;;;;;;;;;20.30;43.90;;;;;;5091022;28;19920;-75
2023/04/05 13:45:08;;;;;;;6.40;2.97;;;20.40;44.40;;;;;;5091471;28;19924;-75
2023/04/05 13:47:33;;;;;;;5.47;2.80;;;20.60;45.10;;;;;;5094984;28;20480;-76
2023/04/05 13:49:59;;;;;;;4.28;2.70;;;20.60;43.60;;;;;;5112531;28;20066;-75
2023/04/05 13:52:25;;;;;;;3.45;2.40;;;20.50;43.50;;;;;;5099044;28;20047;-75
2023/04/05 13:54:51;;;;;;;5.15;2.45;;;20.40;43.90;;;;;;5094262;28;20053;-75
2023/04/05 13:57:16;;;;;;;5.28;2.60;;;20.50;44.50;;;;;;5112056;28;20830;-76
2023/04/05 13:59:42;;;;;;;5.93;2.83;;;20.60;44.40;;;;;;5104694;28;20405;-76
2023/04/05 14:02:10;;;;;;;4.55;2.55;;;20.40;42.10;;;;;;5092660;28;20442;-76
2023/04/05 14:04:39;;;;;;;4.93;2.88;;;20.20;43.20;;;;;;5111156;28;20424;-75
2023/04/05 14:07:05;;;;;;;5.15;2.92;;;19.90;42.80;;;;;;5110472;28;20819;-75